Main page
METAR-TAF:

METAR-TAF

Airports :

N'Djamena International Airport

N'Djamena, Chad

latitude: 12-08N, longitude: 015-02E, elevation: 295 m

Current weather observation

The report was made 43 minutes ago, at 13:00 UTC
Wind 4 kt from the North/Northeast, varying between North/Northeast and South
Temperature 41°C
Humidity 19%
Pressure 1007 hPa
Visibility: 8000 m

METAR: FTTJ 281300Z 03004KT 030V170 8000 NSC 41/13 Q1007 NOSIG

Time: 14:43 (13:43 UTC)

Forecast

The report was made 2 hours and 43 minutes ago, at 11:00 UTC
Forecast valid from 28 at 12 UTC to 29 at 18 UTC
Wind 4 kt from variable directions
Visibility: 8000 m
Few clouds at a height of 4000 ft
Probability 30% :
Temporary
from 29 at 12 UTC to 29 at 18 UTC
Wind 18 kt from variable directions with gusts up to 35 kt
Visibility: 2000 m
Blowing dust, thunderstorm

TAF: FTTJ 281100Z 2812/2918 VRB04KT 8000 FEW040 PROB30 TEMPO 2912/2918 VRB18G35KT 2000 BLDU TS

Weather observations and forecasts of more than 4000 airports (METAR and TAF reports).

The available stations are represented by yellow and red dots on the map.

Hover mouse over dot to see the name of the station.

Then click to see weather observations and forecasts.

To change the map : click on the green buttons with a black cross to zoom in, on the green button with a dash to zoom out, or on the green arrows for adjacent maps.


METAR-TAF: